Terminal Aerodrome Forecast
Issued by NWS

Home | Current Version | Previous Version | Text Only | Print | Product List | Glossary On
Versions: 1 2 3 4 5 6 7 8 9 10 11 12
000
FTAK31 PAFA 272321
TAFABT
TAF
PABT 272321Z 2800/2824 05014G19KT P6SM FEW060
     FM281000 36006KT P6SM SCT035 BKN050 OVC100
     FM281600 VRB04KT 6SM -SN BR SCT025 BKN035 OVC050=

USA.gov is the U.S. government's official web portal to all federal, state and local government web resources and services.